sensor_id;sensor_type;location;lat;lon;timestamp;P1;durP1;ratioP1;P2;durP2;ratioP2
920;SDS011;447;51.332;6.778;2022-08-04T00:10:52;4.60;;;1.87;;
920;SDS011;447;51.332;6.778;2022-08-04T00:13:23;3.77;;;2.13;;
920;SDS011;447;51.332;6.778;2022-08-04T00:16:02;6.73;;;1.87;;
920;SDS011;447;51.332;6.778;2022-08-04T00:18:34;3.10;;;2.13;;
920;SDS011;447;51.332;6.778;2022-08-04T00:21:09;2.23;;;2.00;;
920;SDS011;447;51.332;6.778;2022-08-04T00:23:42;2.90;;;1.50;;
920;SDS011;447;51.332;6.778;2022-08-04T00:26:15;5.93;;;2.10;;
920;SDS011;447;51.332;6.778;2022-08-04T00:28:43;3.90;;;2.20;;
920;SDS011;447;51.332;6.778;2022-08-04T00:31:13;2.80;;;2.00;;
920;SDS011;447;51.332;6.778;2022-08-04T00:33:45;3.40;;;2.07;;
920;SDS011;447;51.332;6.778;2022-08-04T00:36:14;3.67;;;2.10;;
920;SDS011;447;51.332;6.778;2022-08-04T00:38:43;2.43;;;2.00;;
920;SDS011;447;51.332;6.778;2022-08-04T00:41:23;4.00;;;2.20;;
920;SDS011;447;51.332;6.778;2022-08-04T00:44:08;3.73;;;2.00;;
920;SDS011;447;51.332;6.778;2022-08-04T00:58:42;3.37;;;1.93;;
920;SDS011;447;51.332;6.778;2022-08-04T01:15:17;3.67;;;2.10;;
920;SDS011;447;51.332;6.778;2022-08-04T01:18:06;2.70;;;2.10;;
920;SDS011;447;51.332;6.778;2022-08-04T01:29:23;4.13;;;2.43;;
920;SDS011;447;51.332;6.778;2022-08-04T01:32:13;3.70;;;2.10;;
920;SDS011;447;51.332;6.778;2022-08-04T01:38:16;3.27;;;2.10;;
920;SDS011;447;51.332;6.778;2022-08-04T01:40:53;3.40;;;1.93;;
920;SDS011;447;51.332;6.778;2022-08-04T01:43:29;3.80;;;2.10;;
920;SDS011;447;51.332;6.778;2022-08-04T01:46:02;4.00;;;2.00;;
920;SDS011;447;51.332;6.778;2022-08-04T01:48:29;2.80;;;1.80;;
920;SDS011;447;51.332;6.778;2022-08-04T01:51:05;3.70;;;1.80;;
920;SDS011;447;51.332;6.778;2022-08-04T01:53:40;6.87;;;1.90;;
920;SDS011;447;51.332;6.778;2022-08-04T01:56:14;4.33;;;1.90;;
920;SDS011;447;51.332;6.778;2022-08-04T01:58:46;7.40;;;2.00;;
920;SDS011;447;51.332;6.778;2022-08-04T02:01:14;3.10;;;1.70;;
920;SDS011;447;51.332;6.778;2022-08-04T02:03:44;3.43;;;2.03;;
920;SDS011;447;51.332;6.778;2022-08-04T02:09:38;4.43;;;2.00;;
920;SDS011;447;51.332;6.778;2022-08-04T02:15:10;3.77;;;1.60;;
920;SDS011;447;51.332;6.778;2022-08-04T02:17:53;5.57;;;2.10;;
920;SDS011;447;51.332;6.778;2022-08-04T02:20:29;7.10;;;2.17;;
920;SDS011;447;51.332;6.778;2022-08-04T02:23:13;4.03;;;1.87;;
920;SDS011;447;51.332;6.778;2022-08-04T02:26:16;3.20;;;1.70;;
920;SDS011;447;51.332;6.778;2022-08-04T02:28:47;5.67;;;2.20;;
920;SDS011;447;51.332;6.778;2022-08-04T02:31:32;5.20;;;1.87;;
920;SDS011;447;51.332;6.778;2022-08-04T02:36:38;4.67;;;2.00;;
920;SDS011;447;51.332;6.778;2022-08-04T02:39:11;4.10;;;1.77;;
920;SDS011;447;51.332;6.778;2022-08-04T02:41:38;3.00;;;2.03;;
920;SDS011;447;51.332;6.778;2022-08-04T02:44:07;3.73;;;1.90;;
920;SDS011;447;51.332;6.778;2022-08-04T02:46:35;4.23;;;2.00;;
920;SDS011;447;51.332;6.778;2022-08-04T02:49:09;2.43;;;1.67;;
920;SDS011;447;51.332;6.778;2022-08-04T02:51:41;2.90;;;1.90;;
920;SDS011;447;51.332;6.778;2022-08-04T02:54:14;4.30;;;2.23;;
920;SDS011;447;51.332;6.778;2022-08-04T02:56:45;2.90;;;1.80;;
920;SDS011;447;51.332;6.778;2022-08-04T02:59:19;2.60;;;1.53;;
920;SDS011;447;51.332;6.778;2022-08-04T03:01:50;4.40;;;2.20;;
920;SDS011;447;51.332;6.778;2022-08-04T03:07:37;3.13;;;1.97;;
920;SDS011;447;51.332;6.778;2022-08-04T03:27:53;2.90;;;1.80;;
920;SDS011;447;51.332;6.778;2022-08-04T03:53:30;4.83;;;2.67;;
920;SDS011;447;51.332;6.778;2022-08-04T03:56:22;3.63;;;2.07;;
920;SDS011;447;51.332;6.778;2022-08-04T04:13:19;5.10;;;2.10;;
920;SDS011;447;51.332;6.778;2022-08-04T04:16:28;4.20;;;2.27;;
920;SDS011;447;51.332;6.778;2022-08-04T04:19:24;4.07;;;2.13;;
920;SDS011;447;51.332;6.778;2022-08-04T04:28:18;4.60;;;2.00;;
920;SDS011;447;51.332;6.778;2022-08-04T04:33:56;5.50;;;2.10;;
920;SDS011;447;51.332;6.778;2022-08-04T04:50:33;3.73;;;2.50;;
920;SDS011;447;51.332;6.778;2022-08-04T04:56:05;3.63;;;2.37;;
920;SDS011;447;51.332;6.778;2022-08-04T04:58:39;3.83;;;2.17;;
920;SDS011;447;51.332;6.778;2022-08-04T05:12:21;5.23;;;2.40;;
920;SDS011;447;51.332;6.778;2022-08-04T05:15:09;5.63;;;2.37;;
920;SDS011;447;51.332;6.778;2022-08-04T05:17:41;3.30;;;1.70;;
920;SDS011;447;51.332;6.778;2022-08-04T05:20:20;5.83;;;2.37;;
920;SDS011;447;51.332;6.778;2022-08-04T05:28:05;5.93;;;2.30;;
920;SDS011;447;51.332;6.778;2022-08-04T05:30:35;4.60;;;1.93;;
920;SDS011;447;51.332;6.778;2022-08-04T05:33:04;4.27;;;2.10;;
920;SDS011;447;51.332;6.778;2022-08-04T05:35:54;4.97;;;2.53;;
920;SDS011;447;51.332;6.778;2022-08-04T05:38:26;4.47;;;2.33;;
920;SDS011;447;51.332;6.778;2022-08-04T05:40:55;4.03;;;2.17;;
920;SDS011;447;51.332;6.778;2022-08-04T05:43:22;2.97;;;2.10;;
920;SDS011;447;51.332;6.778;2022-08-04T05:45:49;3.20;;;2.37;;
920;SDS011;447;51.332;6.778;2022-08-04T05:48:21;4.93;;;2.80;;
920;SDS011;447;51.332;6.778;2022-08-04T05:50:51;4.40;;;2.47;;
920;SDS011;447;51.332;6.778;2022-08-04T05:53:18;5.80;;;2.70;;
920;SDS011;447;51.332;6.778;2022-08-04T05:55:48;4.70;;;2.80;;
920;SDS011;447;51.332;6.778;2022-08-04T05:58:18;4.50;;;2.63;;
920;SDS011;447;51.332;6.778;2022-08-04T06:00:45;3.30;;;2.80;;
920;SDS011;447;51.332;6.778;2022-08-04T06:03:18;3.03;;;2.73;;
920;SDS011;447;51.332;6.778;2022-08-04T06:05:49;5.13;;;2.10;;
920;SDS011;447;51.332;6.778;2022-08-04T06:08:23;5.60;;;3.00;;
920;SDS011;447;51.332;6.778;2022-08-04T06:10:50;3.77;;;2.63;;
920;SDS011;447;51.332;6.778;2022-08-04T06:13:24;4.07;;;2.80;;
920;SDS011;447;51.332;6.778;2022-08-04T06:15:56;4.30;;;2.40;;
920;SDS011;447;51.332;6.778;2022-08-04T06:18:28;4.73;;;2.53;;
920;SDS011;447;51.332;6.778;2022-08-04T06:21:04;5.63;;;2.70;;
920;SDS011;447;51.332;6.778;2022-08-04T06:23:32;6.10;;;2.60;;
920;SDS011;447;51.332;6.778;2022-08-04T06:26:09;3.23;;;2.50;;
920;SDS011;447;51.332;6.778;2022-08-04T06:28:45;3.67;;;2.93;;
920;SDS011;447;51.332;6.778;2022-08-04T06:31:18;4.93;;;2.80;;
920;SDS011;447;51.332;6.778;2022-08-04T06:34:04;3.97;;;2.50;;
920;SDS011;447;51.332;6.778;2022-08-04T06:36:34;2.93;;;2.30;;
920;SDS011;447;51.332;6.778;2022-08-04T06:39:04;3.87;;;2.93;;
920;SDS011;447;51.332;6.778;2022-08-04T06:41:30;3.27;;;2.50;;
920;SDS011;447;51.332;6.778;2022-08-04T06:43:58;7.20;;;2.90;;
920;SDS011;447;51.332;6.778;2022-08-04T06:46:29;4.63;;;2.97;;
920;SDS011;447;51.332;6.778;2022-08-04T06:48:56;3.00;;;2.40;;
920;SDS011;447;51.332;6.778;2022-08-04T06:51:23;4.27;;;3.27;;
920;SDS011;447;51.332;6.778;2022-08-04T06:53:55;4.53;;;2.90;;
920;SDS011;447;51.332;6.778;2022-08-04T06:56:21;3.77;;;2.80;;
920;SDS011;447;51.332;6.778;2022-08-04T06:58:54;3.67;;;2.60;;
920;SDS011;447;51.332;6.778;2022-08-04T07:01:21;3.13;;;2.80;;
920;SDS011;447;51.332;6.778;2022-08-04T07:03:50;2.80;;;2.57;;
920;SDS011;447;51.332;6.778;2022-08-04T07:06:22;5.70;;;3.00;;
920;SDS011;447;51.332;6.778;2022-08-04T07:08:53;2.97;;;2.77;;
920;SDS011;447;51.332;6.778;2022-08-04T07:11:25;3.00;;;2.80;;
920;SDS011;447;51.332;6.778;2022-08-04T07:13:52;3.97;;;3.07;;
920;SDS011;447;51.332;6.778;2022-08-04T07:16:20;5.90;;;3.00;;
920;SDS011;447;51.332;6.778;2022-08-04T07:18:47;2.50;;;2.30;;
920;SDS011;447;51.332;6.778;2022-08-04T07:21:18;3.50;;;2.93;;
920;SDS011;447;51.332;6.778;2022-08-04T07:23:49;3.67;;;3.30;;
920;SDS011;447;51.332;6.778;2022-08-04T07:26:17;3.57;;;3.10;;
920;SDS011;447;51.332;6.778;2022-08-04T07:28:44;3.67;;;2.97;;
920;SDS011;447;51.332;6.778;2022-08-04T07:31:15;3.70;;;3.30;;
920;SDS011;447;51.332;6.778;2022-08-04T07:33:47;4.67;;;3.27;;
920;SDS011;447;51.332;6.778;2022-08-04T07:36:17;3.37;;;2.87;;
920;SDS011;447;51.332;6.778;2022-08-04T07:38:43;3.67;;;3.00;;
920;SDS011;447;51.332;6.778;2022-08-04T07:41:09;4.17;;;3.80;;
920;SDS011;447;51.332;6.778;2022-08-04T07:43:41;3.80;;;3.50;;
920;SDS011;447;51.332;6.778;2022-08-04T07:46:14;4.47;;;3.20;;
920;SDS011;447;51.332;6.778;2022-08-04T07:48:43;4.70;;;3.43;;
920;SDS011;447;51.332;6.778;2022-08-04T07:51:11;3.67;;;3.23;;
920;SDS011;447;51.332;6.778;2022-08-04T07:53:40;3.90;;;2.80;;
920;SDS011;447;51.332;6.778;2022-08-04T07:56:09;4.80;;;3.63;;
920;SDS011;447;51.332;6.778;2022-08-04T07:58:40;3.67;;;3.37;;
920;SDS011;447;51.332;6.778;2022-08-04T08:01:13;4.07;;;3.73;;
920;SDS011;447;51.332;6.778;2022-08-04T08:03:48;3.60;;;3.30;;
920;SDS011;447;51.332;6.778;2022-08-04T08:06:14;3.30;;;3.00;;
920;SDS011;447;51.332;6.778;2022-08-04T08:08:46;3.50;;;3.20;;
920;SDS011;447;51.332;6.778;2022-08-04T08:11:14;4.57;;;3.57;;
920;SDS011;447;51.332;6.778;2022-08-04T08:13:43;4.80;;;3.20;;
920;SDS011;447;51.332;6.778;2022-08-04T08:16:10;3.60;;;3.30;;
920;SDS011;447;51.332;6.778;2022-08-04T08:18:39;4.03;;;3.50;;
920;SDS011;447;51.332;6.778;2022-08-04T08:21:07;4.10;;;3.20;;
920;SDS011;447;51.332;6.778;2022-08-04T08:23:36;5.03;;;4.10;;
920;SDS011;447;51.332;6.778;2022-08-04T08:26:04;4.10;;;3.47;;
920;SDS011;447;51.332;6.778;2022-08-04T08:28:32;3.73;;;3.30;;
920;SDS011;447;51.332;6.778;2022-08-04T08:30:58;4.33;;;3.10;;
920;SDS011;447;51.332;6.778;2022-08-04T08:33:25;5.10;;;3.60;;
920;SDS011;447;51.332;6.778;2022-08-04T08:53:30;3.53;;;3.23;;
920;SDS011;447;51.332;6.778;2022-08-04T08:59:47;4.73;;;3.10;;
920;SDS011;447;51.332;6.778;2022-08-04T09:05:30;5.27;;;4.00;;
920;SDS011;447;51.332;6.778;2022-08-04T09:11:18;3.20;;;3.00;;
920;SDS011;447;51.332;6.778;2022-08-04T09:13:57;4.00;;;3.70;;
920;SDS011;447;51.332;6.778;2022-08-04T09:19:14;3.60;;;3.23;;
920;SDS011;447;51.332;6.778;2022-08-04T09:21:53;5.63;;;3.43;;
920;SDS011;447;51.332;6.778;2022-08-04T09:27:14;4.47;;;3.73;;
920;SDS011;447;51.332;6.778;2022-08-04T09:29:56;5.63;;;3.40;;
920;SDS011;447;51.332;6.778;2022-08-04T09:38:50;4.70;;;3.90;;
920;SDS011;447;51.332;6.778;2022-08-04T09:44:03;4.33;;;3.70;;
920;SDS011;447;51.332;6.778;2022-08-04T10:02:44;6.43;;;4.20;;
920;SDS011;447;51.332;6.778;2022-08-04T10:05:16;4.10;;;3.80;;
920;SDS011;447;51.332;6.778;2022-08-04T10:08:00;4.00;;;3.70;;
920;SDS011;447;51.332;6.778;2022-08-04T10:10:41;4.70;;;3.70;;
920;SDS011;447;51.332;6.778;2022-08-04T10:19:26;4.93;;;2.93;;
920;SDS011;447;51.332;6.778;2022-08-04T10:22:11;5.80;;;3.70;;
920;SDS011;447;51.332;6.778;2022-08-04T10:27:53;7.80;;;3.70;;
920;SDS011;447;51.332;6.778;2022-08-04T10:30:23;4.83;;;3.57;;
920;SDS011;447;51.332;6.778;2022-08-04T10:33:02;4.20;;;3.30;;
920;SDS011;447;51.332;6.778;2022-08-04T10:36:05;6.63;;;3.10;;
920;SDS011;447;51.332;6.778;2022-08-04T10:38:41;5.90;;;3.40;;
920;SDS011;447;51.332;6.778;2022-08-04T10:41:36;3.17;;;2.87;;
920;SDS011;447;51.332;6.778;2022-08-04T10:46:51;4.50;;;3.63;;
920;SDS011;447;51.332;6.778;2022-08-04T10:49:37;5.50;;;3.00;;
920;SDS011;447;51.332;6.778;2022-08-04T10:52:13;7.43;;;3.10;;
920;SDS011;447;51.332;6.778;2022-08-04T11:00:21;3.43;;;3.13;;
920;SDS011;447;51.332;6.778;2022-08-04T11:05:51;4.90;;;3.07;;
920;SDS011;447;51.332;6.778;2022-08-04T11:08:38;5.27;;;3.70;;
920;SDS011;447;51.332;6.778;2022-08-04T11:11:30;3.40;;;2.67;;
920;SDS011;447;51.332;6.778;2022-08-04T11:16:46;4.63;;;3.70;;
920;SDS011;447;51.332;6.778;2022-08-04T11:22:22;4.70;;;3.23;;
920;SDS011;447;51.332;6.778;2022-08-04T11:27:55;5.87;;;2.90;;
920;SDS011;447;51.332;6.778;2022-08-04T11:31:02;4.00;;;3.47;;
920;SDS011;447;51.332;6.778;2022-08-04T11:33:38;3.63;;;3.30;;
920;SDS011;447;51.332;6.778;2022-08-04T11:41:52;7.47;;;3.60;;
920;SDS011;447;51.332;6.778;2022-08-04T11:44:46;3.97;;;3.57;;
920;SDS011;447;51.332;6.778;2022-08-04T11:47:40;3.50;;;3.17;;
920;SDS011;447;51.332;6.778;2022-08-04T11:53:03;4.43;;;3.10;;
920;SDS011;447;51.332;6.778;2022-08-04T11:55:36;5.27;;;3.00;;
920;SDS011;447;51.332;6.778;2022-08-04T11:58:03;3.30;;;2.67;;
920;SDS011;447;51.332;6.778;2022-08-04T12:00:35;3.90;;;2.83;;
920;SDS011;447;51.332;6.778;2022-08-04T12:12:41;3.50;;;2.67;;
920;SDS011;447;51.332;6.778;2022-08-04T12:17:30;3.70;;;3.40;;
920;SDS011;447;51.332;6.778;2022-08-04T12:20:18;5.60;;;3.30;;
920;SDS011;447;51.332;6.778;2022-08-04T12:22:48;3.20;;;2.73;;
920;SDS011;447;51.332;6.778;2022-08-04T12:25:20;3.30;;;2.77;;
920;SDS011;447;51.332;6.778;2022-08-04T12:27:57;3.30;;;2.97;;
920;SDS011;447;51.332;6.778;2022-08-04T12:30:33;3.57;;;3.23;;
920;SDS011;447;51.332;6.778;2022-08-04T12:33:11;4.40;;;3.20;;
920;SDS011;447;51.332;6.778;2022-08-04T12:35:54;4.00;;;3.17;;
920;SDS011;447;51.332;6.778;2022-08-04T12:38:28;3.23;;;2.93;;
920;SDS011;447;51.332;6.778;2022-08-04T12:41:00;5.30;;;3.13;;
920;SDS011;447;51.332;6.778;2022-08-04T12:43:36;3.57;;;3.27;;
920;SDS011;447;51.332;6.778;2022-08-04T12:46:04;3.07;;;2.77;;
920;SDS011;447;51.332;6.778;2022-08-04T12:48:48;3.83;;;2.90;;
920;SDS011;447;51.332;6.778;2022-08-04T12:51:15;4.60;;;3.03;;
920;SDS011;447;51.332;6.778;2022-08-04T12:53:47;3.27;;;2.97;;
920;SDS011;447;51.332;6.778;2022-08-04T12:56:15;7.67;;;3.00;;
920;SDS011;447;51.332;6.778;2022-08-04T12:58:52;8.33;;;4.00;;
920;SDS011;447;51.332;6.778;2022-08-04T13:01:27;3.50;;;3.20;;
920;SDS011;447;51.332;6.778;2022-08-04T13:06:26;4.37;;;3.20;;
920;SDS011;447;51.332;6.778;2022-08-04T13:09:32;5.90;;;3.40;;
920;SDS011;447;51.332;6.778;2022-08-04T13:12:01;4.67;;;3.67;;
920;SDS011;447;51.332;6.778;2022-08-04T13:14:34;5.60;;;4.40;;
920;SDS011;447;51.332;6.778;2022-08-04T13:17:04;4.60;;;4.00;;
920;SDS011;447;51.332;6.778;2022-08-04T13:19:33;3.60;;;3.07;;
920;SDS011;447;51.332;6.778;2022-08-04T13:22:02;4.03;;;3.17;;
920;SDS011;447;51.332;6.778;2022-08-04T13:24:30;5.20;;;3.17;;
920;SDS011;447;51.332;6.778;2022-08-04T13:27:03;4.13;;;3.50;;
920;SDS011;447;51.332;6.778;2022-08-04T13:29:39;7.20;;;3.70;;
920;SDS011;447;51.332;6.778;2022-08-04T13:32:09;3.63;;;3.33;;
920;SDS011;447;51.332;6.778;2022-08-04T13:34:48;4.77;;;3.80;;
920;SDS011;447;51.332;6.778;2022-08-04T13:37:17;3.90;;;3.47;;
920;SDS011;447;51.332;6.778;2022-08-04T13:39:51;4.30;;;3.70;;
920;SDS011;447;51.332;6.778;2022-08-04T13:42:20;4.30;;;3.53;;
920;SDS011;447;51.332;6.778;2022-08-04T13:44:48;3.33;;;3.03;;
920;SDS011;447;51.332;6.778;2022-08-04T13:47:30;5.83;;;3.63;;
920;SDS011;447;51.332;6.778;2022-08-04T13:52:57;3.80;;;3.37;;
920;SDS011;447;51.332;6.778;2022-08-04T13:55:30;5.43;;;3.97;;
920;SDS011;447;51.332;6.778;2022-08-04T13:58:06;3.90;;;3.37;;
920;SDS011;447;51.332;6.778;2022-08-04T14:00:42;7.40;;;3.50;;
920;SDS011;447;51.332;6.778;2022-08-04T14:03:12;5.33;;;3.57;;
920;SDS011;447;51.332;6.778;2022-08-04T14:06:03;4.13;;;3.63;;
920;SDS011;447;51.332;6.778;2022-08-04T14:08:44;4.13;;;3.67;;
920;SDS011;447;51.332;6.778;2022-08-04T14:11:16;5.40;;;4.07;;
920;SDS011;447;51.332;6.778;2022-08-04T14:13:44;4.20;;;3.60;;
920;SDS011;447;51.332;6.778;2022-08-04T14:16:14;3.87;;;3.47;;
920;SDS011;447;51.332;6.778;2022-08-04T14:18:42;5.70;;;3.53;;
920;SDS011;447;51.332;6.778;2022-08-04T14:21:15;3.90;;;3.47;;
920;SDS011;447;51.332;6.778;2022-08-04T14:23:48;3.90;;;3.50;;
920;SDS011;447;51.332;6.778;2022-08-04T14:28:53;3.93;;;3.53;;
920;SDS011;447;51.332;6.778;2022-08-04T14:31:25;4.10;;;3.67;;
920;SDS011;447;51.332;6.778;2022-08-04T14:33:56;4.10;;;3.53;;
920;SDS011;447;51.332;6.778;2022-08-04T14:36:25;5.53;;;3.63;;
920;SDS011;447;51.332;6.778;2022-08-04T14:38:54;5.57;;;3.60;;
920;SDS011;447;51.332;6.778;2022-08-04T14:43:52;3.77;;;3.33;;
920;SDS011;447;51.332;6.778;2022-08-04T14:46:23;3.77;;;3.37;;
920;SDS011;447;51.332;6.778;2022-08-04T14:49:10;4.27;;;3.90;;
920;SDS011;447;51.332;6.778;2022-08-04T14:51:40;3.80;;;3.30;;
920;SDS011;447;51.332;6.778;2022-08-04T14:54:10;4.33;;;3.67;;
920;SDS011;447;51.332;6.778;2022-08-04T14:56:41;4.63;;;3.60;;
920;SDS011;447;51.332;6.778;2022-08-04T14:59:17;4.40;;;3.17;;
920;SDS011;447;51.332;6.778;2022-08-04T15:01:45;3.70;;;3.23;;
920;SDS011;447;51.332;6.778;2022-08-04T15:04:14;6.97;;;3.50;;
920;SDS011;447;51.332;6.778;2022-08-04T15:06:40;4.40;;;3.70;;
920;SDS011;447;51.332;6.778;2022-08-04T15:09:10;3.63;;;3.33;;
920;SDS011;447;51.332;6.778;2022-08-04T15:11:36;4.60;;;3.73;;
920;SDS011;447;51.332;6.778;2022-08-04T15:14:03;4.07;;;3.77;;
920;SDS011;447;51.332;6.778;2022-08-04T15:16:33;4.37;;;3.10;;
920;SDS011;447;51.332;6.778;2022-08-04T15:19:02;3.60;;;3.30;;
920;SDS011;447;51.332;6.778;2022-08-04T15:21:29;3.37;;;3.07;;
920;SDS011;447;51.332;6.778;2022-08-04T15:23:56;5.03;;;3.70;;
920;SDS011;447;51.332;6.778;2022-08-04T15:28:56;3.53;;;3.23;;
920;SDS011;447;51.332;6.778;2022-08-04T15:31:34;4.20;;;3.60;;
920;SDS011;447;51.332;6.778;2022-08-04T15:34:06;3.80;;;3.43;;
920;SDS011;447;51.332;6.778;2022-08-04T15:36:52;4.20;;;3.60;;
920;SDS011;447;51.332;6.778;2022-08-04T15:47:27;5.10;;;3.60;;
920;SDS011;447;51.332;6.778;2022-08-04T15:50:05;4.13;;;3.50;;
920;SDS011;447;51.332;6.778;2022-08-04T15:53:18;5.10;;;3.47;;
920;SDS011;447;51.332;6.778;2022-08-04T15:58:03;3.90;;;3.53;;
920;SDS011;447;51.332;6.778;2022-08-04T16:06:00;3.70;;;3.13;;
920;SDS011;447;51.332;6.778;2022-08-04T16:21:59;5.00;;;3.40;;
920;SDS011;447;51.332;6.778;2022-08-04T16:34:32;4.23;;;3.23;;
920;SDS011;447;51.332;6.778;2022-08-04T16:37:02;6.60;;;3.60;;
920;SDS011;447;51.332;6.778;2022-08-04T16:39:32;4.17;;;3.50;;
920;SDS011;447;51.332;6.778;2022-08-04T16:41:59;5.00;;;3.60;;
920;SDS011;447;51.332;6.778;2022-08-04T16:44:45;5.03;;;3.40;;
920;SDS011;447;51.332;6.778;2022-08-04T16:50:18;4.97;;;2.80;;
920;SDS011;447;51.332;6.778;2022-08-04T16:52:50;4.17;;;3.30;;
920;SDS011;447;51.332;6.778;2022-08-04T16:55:17;4.33;;;3.17;;
920;SDS011;447;51.332;6.778;2022-08-04T16:57:50;4.37;;;3.50;;
920;SDS011;447;51.332;6.778;2022-08-04T17:00:27;4.03;;;2.97;;
920;SDS011;447;51.332;6.778;2022-08-04T17:03:05;4.83;;;3.00;;
920;SDS011;447;51.332;6.778;2022-08-04T17:05:33;7.40;;;3.60;;
920;SDS011;447;51.332;6.778;2022-08-04T17:08:02;4.47;;;3.47;;
920;SDS011;447;51.332;6.778;2022-08-04T17:10:35;4.80;;;3.30;;
920;SDS011;447;51.332;6.778;2022-08-04T17:13:28;3.67;;;3.13;;
920;SDS011;447;51.332;6.778;2022-08-04T17:16:08;4.40;;;3.00;;
920;SDS011;447;51.332;6.778;2022-08-04T17:18:47;4.17;;;3.77;;
920;SDS011;447;51.332;6.778;2022-08-04T17:21:16;3.77;;;2.90;;
920;SDS011;447;51.332;6.778;2022-08-04T17:23:48;4.43;;;2.70;;
920;SDS011;447;51.332;6.778;2022-08-04T17:26:45;3.63;;;2.80;;
920;SDS011;447;51.332;6.778;2022-08-04T17:29:12;5.70;;;3.03;;
920;SDS011;447;51.332;6.778;2022-08-04T17:31:43;7.80;;;3.33;;
920;SDS011;447;51.332;6.778;2022-08-04T17:34:10;3.13;;;2.83;;
920;SDS011;447;51.332;6.778;2022-08-04T17:36:37;5.93;;;3.00;;
920;SDS011;447;51.332;6.778;2022-08-04T17:39:17;4.60;;;3.10;;
920;SDS011;447;51.332;6.778;2022-08-04T17:41:45;3.23;;;2.93;;
920;SDS011;447;51.332;6.778;2022-08-04T17:44:12;4.40;;;2.77;;
920;SDS011;447;51.332;6.778;2022-08-04T17:46:41;4.10;;;2.60;;
920;SDS011;447;51.332;6.778;2022-08-04T17:54:15;3.80;;;3.13;;
920;SDS011;447;51.332;6.778;2022-08-04T17:56:50;4.43;;;3.40;;
920;SDS011;447;51.332;6.778;2022-08-04T17:59:18;2.90;;;2.63;;
920;SDS011;447;51.332;6.778;2022-08-04T18:04:31;5.33;;;2.80;;
920;SDS011;447;51.332;6.778;2022-08-04T18:07:06;3.43;;;3.10;;
920;SDS011;447;51.332;6.778;2022-08-04T18:09:38;3.10;;;2.80;;
920;SDS011;447;51.332;6.778;2022-08-04T18:12:09;5.30;;;2.87;;
920;SDS011;447;51.332;6.778;2022-08-04T18:17:15;4.27;;;3.20;;
920;SDS011;447;51.332;6.778;2022-08-04T18:20:10;3.97;;;3.03;;
920;SDS011;447;51.332;6.778;2022-08-04T18:22:40;2.90;;;2.70;;
920;SDS011;447;51.332;6.778;2022-08-04T18:25:07;5.33;;;2.93;;
920;SDS011;447;51.332;6.778;2022-08-04T18:27:57;4.20;;;2.83;;
920;SDS011;447;51.332;6.778;2022-08-04T18:30:25;3.10;;;2.87;;
920;SDS011;447;51.332;6.778;2022-08-04T18:32:56;6.37;;;3.20;;
920;SDS011;447;51.332;6.778;2022-08-04T18:35:28;3.80;;;3.00;;
920;SDS011;447;51.332;6.778;2022-08-04T18:37:54;6.43;;;2.73;;
920;SDS011;447;51.332;6.778;2022-08-04T18:40:21;4.07;;;2.70;;
920;SDS011;447;51.332;6.778;2022-08-04T18:42:49;4.60;;;3.60;;
920;SDS011;447;51.332;6.778;2022-08-04T18:45:15;4.50;;;3.00;;
920;SDS011;447;51.332;6.778;2022-08-04T18:47:44;3.10;;;2.80;;
920;SDS011;447;51.332;6.778;2022-08-04T18:50:10;4.10;;;2.90;;
920;SDS011;447;51.332;6.778;2022-08-04T18:52:36;2.63;;;2.43;;
920;SDS011;447;51.332;6.778;2022-08-04T18:55:04;3.53;;;3.10;;
920;SDS011;447;51.332;6.778;2022-08-04T18:57:30;3.60;;;2.93;;
920;SDS011;447;51.332;6.778;2022-08-04T18:59:57;5.13;;;3.50;;
920;SDS011;447;51.332;6.778;2022-08-04T19:02:23;4.37;;;3.17;;
920;SDS011;447;51.332;6.778;2022-08-04T19:04:51;3.03;;;2.83;;
920;SDS011;447;51.332;6.778;2022-08-04T19:07:17;3.23;;;2.93;;
920;SDS011;447;51.332;6.778;2022-08-04T19:09:46;3.00;;;2.70;;
920;SDS011;447;51.332;6.778;2022-08-04T19:12:14;3.30;;;2.57;;
920;SDS011;447;51.332;6.778;2022-08-04T19:14:40;4.20;;;2.97;;
920;SDS011;447;51.332;6.778;2022-08-04T19:17:09;3.07;;;2.50;;
920;SDS011;447;51.332;6.778;2022-08-04T19:19:37;2.80;;;2.50;;
920;SDS011;447;51.332;6.778;2022-08-04T19:22:08;4.77;;;2.70;;
920;SDS011;447;51.332;6.778;2022-08-04T19:24:34;4.50;;;2.60;;
920;SDS011;447;51.332;6.778;2022-08-04T19:27:01;4.47;;;2.53;;
920;SDS011;447;51.332;6.778;2022-08-04T19:29:32;4.17;;;2.80;;
920;SDS011;447;51.332;6.778;2022-08-04T19:32:02;4.03;;;3.03;;
920;SDS011;447;51.332;6.778;2022-08-04T19:34:30;4.10;;;2.73;;
920;SDS011;447;51.332;6.778;2022-08-04T19:36:56;2.50;;;2.20;;
920;SDS011;447;51.332;6.778;2022-08-04T19:39:24;10.53;;;2.70;;
920;SDS011;447;51.332;6.778;2022-08-04T19:41:52;4.10;;;2.57;;
920;SDS011;447;51.332;6.778;2022-08-04T19:44:21;5.13;;;2.60;;
920;SDS011;447;51.332;6.778;2022-08-04T19:46:49;2.97;;;2.70;;
920;SDS011;447;51.332;6.778;2022-08-04T19:49:19;2.80;;;2.37;;
920;SDS011;447;51.332;6.778;2022-08-04T19:51:49;3.40;;;2.40;;
920;SDS011;447;51.332;6.778;2022-08-04T19:54:18;4.00;;;3.03;;
920;SDS011;447;51.332;6.778;2022-08-04T19:56:44;2.97;;;2.60;;
920;SDS011;447;51.332;6.778;2022-08-04T19:59:15;2.83;;;2.40;;
920;SDS011;447;51.332;6.778;2022-08-04T20:01:41;3.67;;;2.33;;
920;SDS011;447;51.332;6.778;2022-08-04T20:04:13;4.53;;;2.60;;
920;SDS011;447;51.332;6.778;2022-08-04T20:06:39;3.17;;;2.57;;
920;SDS011;447;51.332;6.778;2022-08-04T20:09:08;4.57;;;2.80;;
920;SDS011;447;51.332;6.778;2022-08-04T20:11:34;4.13;;;3.23;;
920;SDS011;447;51.332;6.778;2022-08-04T20:14:00;2.50;;;2.30;;
920;SDS011;447;51.332;6.778;2022-08-04T20:16:31;4.50;;;3.03;;
920;SDS011;447;51.332;6.778;2022-08-04T20:19:02;3.17;;;2.40;;
920;SDS011;447;51.332;6.778;2022-08-04T20:21:28;2.40;;;2.20;;
920;SDS011;447;51.332;6.778;2022-08-04T20:23:56;3.33;;;2.93;;
920;SDS011;447;51.332;6.778;2022-08-04T20:26:24;3.90;;;3.27;;
920;SDS011;447;51.332;6.778;2022-08-04T20:28:51;3.13;;;2.50;;
920;SDS011;447;51.332;6.778;2022-08-04T20:31:19;3.37;;;2.63;;
920;SDS011;447;51.332;6.778;2022-08-04T20:33:45;3.57;;;2.80;;
920;SDS011;447;51.332;6.778;2022-08-04T20:36:16;5.20;;;2.90;;
920;SDS011;447;51.332;6.778;2022-08-04T20:38:42;2.93;;;2.60;;
920;SDS011;447;51.332;6.778;2022-08-04T20:41:11;3.40;;;2.43;;
920;SDS011;447;51.332;6.778;2022-08-04T20:43:40;3.50;;;2.63;;
920;SDS011;447;51.332;6.778;2022-08-04T20:46:09;4.20;;;2.97;;
920;SDS011;447;51.332;6.778;2022-08-04T20:48:35;3.60;;;2.77;;
920;SDS011;447;51.332;6.778;2022-08-04T20:51:04;3.60;;;3.00;;
920;SDS011;447;51.332;6.778;2022-08-04T20:53:30;2.50;;;2.30;;
920;SDS011;447;51.332;6.778;2022-08-04T20:55:56;4.40;;;3.00;;
920;SDS011;447;51.332;6.778;2022-08-04T20:58:24;2.90;;;2.60;;
920;SDS011;447;51.332;6.778;2022-08-04T21:00:54;4.00;;;3.00;;
920;SDS011;447;51.332;6.778;2022-08-04T21:03:23;4.80;;;2.97;;
920;SDS011;447;51.332;6.778;2022-08-04T21:05:48;3.43;;;3.00;;
920;SDS011;447;51.332;6.778;2022-08-04T21:08:14;2.80;;;2.50;;
920;SDS011;447;51.332;6.778;2022-08-04T21:10:40;5.23;;;3.07;;
920;SDS011;447;51.332;6.778;2022-08-04T21:13:06;3.57;;;2.53;;
920;SDS011;447;51.332;6.778;2022-08-04T21:15:39;3.80;;;3.23;;
920;SDS011;447;51.332;6.778;2022-08-04T21:18:07;3.93;;;3.00;;
920;SDS011;447;51.332;6.778;2022-08-04T21:20:36;4.27;;;2.90;;
920;SDS011;447;51.332;6.778;2022-08-04T21:23:02;3.57;;;3.13;;
920;SDS011;447;51.332;6.778;2022-08-04T21:25:30;4.83;;;2.70;;
920;SDS011;447;51.332;6.778;2022-08-04T21:27:56;6.03;;;3.70;;
920;SDS011;447;51.332;6.778;2022-08-04T21:30:22;3.77;;;2.57;;
920;SDS011;447;51.332;6.778;2022-08-04T21:32:55;4.17;;;2.70;;
920;SDS011;447;51.332;6.778;2022-08-04T21:35:21;3.60;;;2.67;;
920;SDS011;447;51.332;6.778;2022-08-04T21:37:48;2.90;;;2.60;;
920;SDS011;447;51.332;6.778;2022-08-04T21:40:19;3.50;;;2.33;;
920;SDS011;447;51.332;6.778;2022-08-04T21:42:47;2.47;;;2.27;;
920;SDS011;447;51.332;6.778;2022-08-04T21:45:13;3.30;;;2.43;;
920;SDS011;447;51.332;6.778;2022-08-04T21:47:40;3.27;;;2.30;;
920;SDS011;447;51.332;6.778;2022-08-04T21:50:08;2.97;;;2.40;;